Time;durP1;ratioP1;P1;durP2;ratioP2;P2;SDS_P1;SDS_P2;PMS_P1;PMS_P2;Temp;Humidity;BMP_temperature;BMP_pressure;BME280_temperature;BME280_humidity;BME280_pressure;Samples;Min_cycle;Max_cycle;Signal;HPM_P1;HPM_P2
2023/05/04 00:01:10;;;;;;;6.78;2.80;;;;;;;11.11;100.00;99241.03;4971704;28;20433;-64
2023/05/04 00:03:38;;;;;;;5.70;2.60;;;;;;;11.24;100.00;99240.28;4975178;28;20023;-64
2023/05/04 00:06:03;;;;;;;12.18;3.53;;;;;;;11.20;100.00;99239.84;4973543;28;20073;-64
2023/05/04 00:08:30;;;;;;;5.05;2.55;;;;;;;11.27;100.00;99232.63;4971759;28;20513;-63
2023/05/04 00:10:55;;;;;;;5.03;2.70;;;;;;;11.34;100.00;99238.06;4966571;28;20050;-63
2023/05/04 00:13:21;;;;;;;4.88;3.03;;;;;;;11.27;100.00;99232.63;4973182;28;20054;-66
2023/05/04 00:15:46;;;;;;;7.28;3.10;;;;;;;11.34;100.00;99224.53;4973433;28;20026;-64
2023/05/04 00:18:12;;;;;;;4.40;2.70;;;;;;;11.34;100.00;99224.53;4972233;28;20173;-64
2023/05/04 00:20:37;;;;;;;5.03;3.47;;;;;;;11.35;100.00;99224.34;4972508;28;20031;-64
2023/05/04 00:23:03;;;;;;;9.52;3.58;;;;;;;11.21;100.00;99227.13;4970308;28;20031;-67
2023/05/04 00:25:28;;;;;;;9.25;3.33;;;;;;;11.10;100.00;99223.09;4983457;28;20023;-66
2023/05/04 00:27:55;;;;;;;5.53;3.42;;;;;;;10.94;100.00;99222.34;4985294;28;20029;-66
2023/05/04 00:30:21;;;;;;;6.63;3.20;;;;;;;10.82;100.00;99213.09;4977597;28;20117;-66
2023/05/04 00:32:46;;;;;;;4.57;2.85;;;;;;;10.67;100.00;99221.28;4984003;28;20118;-67
2023/05/04 00:35:11;;;;;;;5.88;3.40;;;;;;;10.57;100.00;99217.22;4973612;28;20109;-66
2023/05/04 00:37:37;;;;;;;7.75;3.20;;;;;;;10.57;100.00;99223.47;4973187;28;20042;-64
2023/05/04 00:40:04;;;;;;;5.07;2.97;;;;;;;10.41;100.00;99224.56;4972909;28;20430;-64
2023/05/04 00:42:29;;;;;;;7.88;3.13;;;;;;;10.22;100.00;99212.47;4973402;28;20026;-65
2023/05/04 00:45:13;;;;;;;4.88;3.08;;;;;;;10.03;100.00;99218.47;4974377;28;20360;-64
2023/05/04 00:47:40;;;;;;;4.90;3.05;;;;;;;9.85;100.00;99217.03;4973762;28;20117;-64
2023/05/04 00:50:06;;;;;;;7.55;3.15;;;;;;;9.61;100.00;99218.13;4964286;28;20022;-64
2023/05/04 00:52:31;;;;;;;5.72;2.97;;;;;;;9.54;100.00;99221.81;4986686;28;20118;-64
2023/05/04 00:54:59;;;;;;;7.40;3.00;;;;;;;9.26;100.00;99217.03;4970555;28;20122;-64
2023/05/04 00:57:25;;;;;;;7.03;4.10;;;;;;;9.18;100.00;99217.13;4968101;28;20098;-64
2023/05/04 00:59:52;;;;;;;7.88;4.25;;;;;;;9.12;100.00;99223.25;4964788;28;20118;-66
2023/05/04 01:02:22;;;;;;;5.97;3.90;;;;;;;9.10;100.00;99217.19;4970854;28;20061;-65
2023/05/04 01:04:48;;;;;;;7.13;4.00;;;;;;;9.26;100.00;99218.91;4983061;28;20034;-64
2023/05/04 01:07:31;;;;;;;7.57;4.28;;;;;;;9.10;100.00;99209.94;4976832;28;20026;-64
2023/05/04 01:10:13;;;;;;;6.97;4.13;;;;;;;9.14;100.00;99210.41;4980785;28;20094;-64
2023/05/04 01:13:13;;;;;;;8.63;5.10;;;;;;;9.18;100.00;99203.63;4969810;28;20034;-64
2023/05/04 01:15:39;;;;;;;7.10;4.20;;;;;;;9.10;100.00;99209.94;4937949;28;20043;-64
2023/05/04 01:18:06;;;;;;;6.75;4.40;;;;;;;9.05;100.00;99208.81;4973510;28;20398;-66
2023/05/04 01:20:31;;;;;;;8.25;4.53;;;;;;;9.20;100.00;99204.28;4965928;28;20038;-67
2023/05/04 01:22:57;;;;;;;8.68;5.00;;;;;;;9.09;100.00;99207.41;4969186;28;20038;-66
2023/05/04 01:25:27;;;;;;;6.35;4.55;;;;;;;9.17;100.00;99201.97;4972851;28;20023;-64
2023/05/04 01:28:01;;;;;;;9.00;4.50;;;;;;;9.21;100.00;99206.78;4987453;28;20069;-64
2023/05/04 01:30:36;;;;;;;8.07;4.93;;;;;;;9.21;100.00;99197.84;4984989;28;20034;-64
2023/05/04 01:33:03;;;;;;;7.20;4.82;;;;;;;9.24;100.00;99200.16;4956569;28;20113;-67
2023/05/04 01:35:29;;;;;;;11.65;5.18;;;;;;;9.20;100.00;99196.19;4973059;28;20114;-66
2023/05/04 01:37:54;;;;;;;9.57;5.32;;;;;;;9.09;100.00;99196.63;4972334;28;20118;-66
2023/05/04 01:40:20;;;;;;;9.02;5.18;;;;;;;9.00;100.00;99196.69;4972828;28;20440;-66
2023/05/04 01:42:45;;;;;;;10.10;5.30;;;;;;;9.09;100.00;99197.47;4985125;28;20103;-67
2023/05/04 01:45:11;;;;;;;9.30;5.20;;;;;;;9.06;100.00;99191.59;4975881;28;20031;-67
2023/05/04 01:47:37;;;;;;;9.32;4.90;;;;;;;8.91;100.00;99199.69;4972524;28;20026;-67
2023/05/04 01:50:04;;;;;;;9.00;4.72;;;;;;;8.76;100.00;99195.06;4974370;28;20031;-67
2023/05/04 01:52:30;;;;;;;8.43;5.13;;;;;;;8.75;100.00;99196.09;4974961;28;20035;-67
2023/05/04 01:54:55;;;;;;;7.68;4.75;;;;;;;8.66;100.00;99202.56;4979645;28;20566;-65
2023/05/04 01:57:21;;;;;;;7.47;4.97;;;;;;;8.56;100.00;99210.06;4986666;28;20034;-64
2023/05/04 01:59:46;;;;;;;13.00;5.57;;;;;;;8.48;100.00;99221.75;4979419;28;20153;-64
2023/05/04 02:02:12;;;;;;;12.70;5.25;;;;;;;8.35;100.00;99216.09;4971969;28;20090;-68
2023/05/04 02:04:40;;;;;;;10.50;5.68;;;;;;;8.38;100.00;99214.88;4973142;28;20463;-64
2023/05/04 02:07:06;;;;;;;8.48;5.63;;;;;;;8.34;100.00;99226.03;4975810;28;20110;-64
2023/05/04 02:09:31;;;;;;;9.57;5.57;;;;;;;8.28;100.00;99220.53;4973023;28;20118;-64
2023/05/04 02:11:56;;;;;;;10.27;6.00;;;;;;;8.48;100.00;99215.53;4970290;28;20054;-67
2023/05/04 02:14:22;;;;;;;11.65;5.95;;;;;;;8.48;100.00;99221.75;4975060;28;20110;-64
2023/05/04 02:16:47;;;;;;;13.05;6.22;;;;;;;8.57;100.00;99225.25;4973873;28;20125;-67
2023/05/04 02:19:12;;;;;;;9.27;6.07;;;;;;;8.59;100.00;99216.97;4975036;28;20435;-67
2023/05/04 02:21:40;;;;;;;10.48;5.50;;;;;;;8.57;100.00;99214.47;4973427;28;20031;-67
2023/05/04 02:24:06;;;;;;;10.13;5.53;;;;;;;8.48;100.00;99208.28;4981773;28;20044;-64
2023/05/04 02:26:31;;;;;;;9.18;5.40;;;;;;;8.49;100.00;99212.66;4981509;28;20462;-67
2023/05/04 02:28:57;;;;;;;7.55;5.10;;;;;;;8.52;100.00;99203.38;4970073;28;20031;-64
2023/05/04 02:31:23;;;;;;;10.48;5.18;;;;;;;8.45;100.00;99216.72;4967683;28;20023;-64
2023/05/04 02:33:50;;;;;;;9.43;5.32;;;;;;;8.30;100.00;99213.91;4975583;28;20588;-64
2023/05/04 02:36:15;;;;;;;9.23;5.22;;;;;;;8.21;100.00;99215.00;4973721;28;20027;-64
2023/05/04 02:38:40;;;;;;;11.65;5.47;;;;;;;8.15;100.00;99210.34;4987099;28;20551;-67
2023/05/04 02:41:06;;;;;;;10.38;4.70;;;;;;;8.09;100.00;99214.56;4984395;28;20030;-66
2023/05/04 02:43:31;;;;;;;8.68;4.70;;;;;;;8.05;100.00;99215.09;4970610;28;20053;-64
2023/05/04 02:45:57;;;;;;;7.90;5.03;;;;;;;8.02;100.00;99210.06;4974469;28;20490;-64
2023/05/04 02:48:23;;;;;;;9.10;4.72;;;;;;;8.06;100.00;99195.22;4977806;28;20391;-64
2023/05/04 02:50:49;;;;;;;8.52;4.80;;;;;;;8.03;100.00;99217.97;4974851;28;20031;-64
2023/05/04 02:53:14;;;;;;;11.73;4.85;;;;;;;7.99;100.00;99210.41;4969852;28;20042;-67
2023/05/04 02:55:40;;;;;;;8.77;5.25;;;;;;;7.97;100.00;99210.59;4972837;28;20117;-67
2023/05/04 02:58:06;;;;;;;7.45;5.03;;;;;;;7.84;100.00;99213.84;4972427;28;20034;-67
2023/05/04 03:00:31;;;;;;;9.68;5.20;;;;;;;7.83;100.00;99211.31;4972927;28;20027;-67
2023/05/04 03:02:56;;;;;;;8.98;4.70;;;;;;;7.86;100.00;99214.53;4972837;28;20082;-67
2023/05/04 03:05:22;;;;;;;10.65;5.60;;;;;;;7.80;100.00;99211.69;4971528;28;20027;-67
2023/05/04 03:07:47;;;;;;;8.60;5.35;;;;;;;7.82;100.00;99209.66;4973372;28;20065;-67
2023/05/04 03:10:12;;;;;;;9.30;5.05;;;;;;;7.66;100.00;99206.03;4976494;28;20462;-67
2023/05/04 03:12:38;;;;;;;10.27;5.68;;;;;;;7.71;100.00;99208.19;4969395;28;20462;-67
2023/05/04 03:15:04;;;;;;;11.02;5.85;;;;;;;7.71;100.00;99207.38;4984297;28;20027;-67
2023/05/04 03:17:29;;;;;;;9.02;5.35;;;;;;;7.75;100.00;99209.50;4970892;28;20030;-67
2023/05/04 03:20:02;;;;;;;9.38;5.18;;;;;;;7.61;100.00;99211.09;4974966;28;20038;-64
2023/05/04 03:22:28;;;;;;;12.23;5.50;;;;;;;7.62;100.00;99201.16;4975283;28;20073;-64
2023/05/04 03:24:53;;;;;;;7.68;5.57;;;;;;;7.66;100.00;99202.50;4971112;28;20050;-67
2023/05/04 03:27:19;;;;;;;7.85;4.60;;;;;;;7.51;100.00;99201.53;4988156;28;20565;-67
2023/05/04 03:29:44;;;;;;;454.67;51.55;;;;;;;7.44;100.00;99204.06;5004741;22;20142;-54
2023/05/04 03:32:11;;;;;;;27.90;15.93;;;;;;;7.41;100.00;99209.81;4990245;28;20026;-54
2023/05/04 03:34:37;;;;;;;12.50;5.25;;;;;;;7.33;100.00;99199.91;4975534;28;20035;-54
2023/05/04 03:37:03;;;;;;;9.27;5.05;;;;;;;7.35;100.00;99207.81;4987029;28;20030;-54
2023/05/04 03:39:28;;;;;;;476.45;139.90;;;;;;;7.20;100.00;99210.38;4962423;28;20023;-54
2023/05/04 03:41:54;;;;;;;580.55;320.42;;;;;;;7.15;100.00;99210.91;4971253;28;20023;-54
2023/05/04 03:44:19;;;;;;;8.35;5.70;;;;;;;7.35;100.00;99210.50;4973085;28;20014;-54
2023/05/04 03:46:45;;;;;;;30.08;26.90;;;;;;;7.53;100.00;99200.34;4968210;28;20023;-54
2023/05/04 03:49:10;;;;;;;918.97;75.40;;;;;;;7.35;100.00;99187.13;4955645;28;20470;-54
2023/05/04 03:51:35;;;;;;;191.68;17.45;;;;;;;7.29;100.00;99203.13;4968792;28;20493;-54
2023/05/04 03:54:01;;;;;;;1307.13;333.15;;;;;;;7.22;100.00;99203.81;4967125;28;20054;-54
2023/05/04 03:56:26;;;;;;;995.50;99.40;;;;;;;7.21;100.00;99207.53;4996339;28;20031;-55
2023/05/04 03:58:52;;;;;;;66.68;14.23;;;;;;;7.31;100.00;99207.34;4964284;28;20030;-54
2023/05/04 04:01:17;;;;;;;395.35;42.60;;;;;;;7.20;100.00;99205.00;4956376;28;20065;-54
2023/05/04 04:03:43;;;;;;;734.38;75.32;;;;;;;7.25;100.00;99208.00;4974753;28;20034;-54
2023/05/04 04:06:09;;;;;;;806.85;76.95;;;;;;;7.23;100.00;99201.94;4961438;28;20026;-54
2023/05/04 04:08:35;;;;;;;222.40;27.58;;;;;;;7.23;100.00;99205.50;4963528;28;20452;-54
2023/05/04 04:11:00;;;;;;;742.47;100.85;;;;;;;7.45;100.00;99200.38;4962652;28;20035;-54
2023/05/04 04:13:26;;;;;;;636.30;61.65;;;;;;;7.57;100.00;99201.69;4950479;28;20685;-54
2023/05/04 04:15:52;;;;;;;190.77;21.13;;;;;;;7.53;100.00;99194.97;4970398;28;20019;-54
2023/05/04 04:18:18;;;;;;;493.10;45.28;;;;;;;7.57;100.00;99200.84;4969887;28;20050;-54
2023/05/04 04:20:44;;;;;;;467.90;85.15;;;;;;;7.60;100.00;99193.25;4967611;28;20062;-54
2023/05/04 04:23:09;;;;;;;210.00;23.20;;;;;;;7.65;100.00;99190.88;4961974;28;20109;-54
2023/05/04 04:25:35;;;;;;;259.60;24.58;;;;;;;7.62;100.00;99198.47;4963235;28;20105;-54
2023/05/04 04:28:01;;;;;;;448.00;44.08;;;;;;;7.62;100.00;99198.47;4973359;28;20034;-55
2023/05/04 04:30:26;;;;;;;839.72;110.80;;;;;;;7.71;100.00;99196.59;4953666;28;20039;-54
2023/05/04 04:32:53;;;;;;;450.48;42.40;;;;;;;7.75;100.00;99192.50;4952837;28;20027;-54
2023/05/04 04:35:19;;;;;;;867.63;113.15;;;;;;;7.68;100.00;99163.59;4958060;28;20034;-54
2023/05/04 04:37:44;;;;;;;475.98;63.03;;;;;;;7.95;100.00;99188.38;4957564;28;20466;-54
2023/05/04 04:40:10;;;;;;;203.60;22.85;;;;;;;8.09;100.00;99189.47;4955546;28;20034;-56
2023/05/04 04:42:36;;;;;;;167.00;28.90;;;;;;;8.24;100.00;99189.56;4958888;28;20152;-54
2023/05/04 04:45:04;;;;;;;632.20;104.55;;;;;;;8.40;100.00;99197.53;4969017;28;20027;-54
2023/05/04 04:47:31;;;;;;;219.60;27.25;;;;;;;8.54;100.00;99187.81;4971121;28;20070;-54
2023/05/04 04:49:56;;;;;;;451.27;66.40;;;;;;;8.72;100.00;99187.50;4971868;28;20066;-54
2023/05/04 04:52:22;;;;;;;398.48;103.47;;;;;;;8.92;100.00;99190.56;4958220;28;20525;-54
2023/05/04 04:54:48;;;;;;;138.55;25.25;;;;;;;9.03;100.00;99179.28;4966186;28;20027;-54
2023/05/04 04:57:13;;;;;;;637.40;129.65;;;;;;;9.10;100.00;99177.53;4950008;28;20380;-54
2023/05/04 04:59:39;;;;;;;218.10;28.27;;;;;;;9.14;100.00;99186.97;4984829;28;20493;-59
2023/05/04 05:02:04;;;;;;;605.78;94.28;;;;;;;9.18;100.00;99184.72;4967935;28;21085;-60
2023/05/04 05:04:30;;;;;;;197.95;33.10;;;;;;;9.27;100.00;99188.16;4957397;28;20477;-59
2023/05/04 05:06:55;;;;;;;96.35;19.00;;;;;;;9.31;100.00;99184.91;4972345;28;20027;-59
2023/05/04 05:09:20;;;;;;;417.45;54.80;;;;;;;9.43;100.00;99180.72;4969320;28;20027;-60
2023/05/04 05:11:46;;;;;;;300.65;26.50;;;;;;;9.68;100.00;99183.13;4967029;28;20466;-60
2023/05/04 05:14:11;;;;;;;342.88;39.60;;;;;;;9.92;100.00;99170.31;4976282;28;20061;-60
2023/05/04 05:16:37;;;;;;;75.22;10.45;;;;;;;10.15;100.00;99165.59;4958334;28;20030;-60
2023/05/04 05:19:02;;;;;;;11.50;7.13;;;;;;;10.41;100.00;99172.34;4964387;28;20125;-60
2023/05/04 05:21:28;;;;;;;9.85;6.78;;;;;;;10.67;100.00;99169.88;4985409;28;20022;-60
2023/05/04 05:23:53;;;;;;;296.67;23.13;;;;;;;10.92;100.00;99167.56;4953333;28;20042;-60
2023/05/04 05:26:18;;;;;;;723.22;368.55;;;;;;;11.03;100.00;99168.91;4982814;28;20076;-60
2023/05/04 05:28:44;;;;;;;966.33;69.18;;;;;;;11.18;100.00;99172.31;4967942;28;20038;-59
2023/05/04 05:31:10;;;;;;;66.13;9.57;;;;;;;11.28;100.00;99165.72;4982475;28;20138;-60
2023/05/04 05:33:35;;;;;;;698.47;41.60;;;;;;;11.43;100.00;99171.88;4953498;28;20050;-59
2023/05/04 05:36:01;;;;;;;10.27;6.30;;;;;;;11.62;100.00;99171.13;4977827;28;20081;-60
2023/05/04 05:38:27;;;;;;;9.48;6.18;;;;;;;11.74;100.00;99178.72;4943430;28;20030;-60
2023/05/04 05:40:53;;;;;;;7.82;5.57;;;;;;;12.02;100.00;99176.75;4956925;28;20128;-60
2023/05/04 05:43:19;;;;;;;9.43;6.10;;;;;;;12.34;100.00;99177.06;4973710;28;20105;-60
2023/05/04 05:45:44;;;;;;;11.63;6.47;;;;;;;12.54;100.00;99181.66;4971906;28;20109;-60
2023/05/04 05:48:09;;;;;;;9.73;5.47;;;;;;;12.79;100.00;99173.78;4984302;28;20027;-60
2023/05/04 05:50:35;;;;;;;9.02;5.90;;;;;;;13.08;100.00;99176.03;4980086;28;20101;-60
2023/05/04 05:53:00;;;;;;;10.25;6.55;;;;;;;13.16;100.00;99175.81;4966531;28;20039;-60
2023/05/04 05:55:26;;;;;;;13.00;6.10;;;;;;;13.42;100.00;99173.31;4953617;28;20463;-60
2023/05/04 05:57:51;;;;;;;11.38;6.50;;;;;;;13.48;100.00;99175.16;4978755;28;20035;-60
2023/05/04 06:00:17;;;;;;;11.98;6.22;;;;;;;13.35;100.00;99168.72;4973217;28;20110;-60
2023/05/04 06:02:42;;;;;;;11.27;6.10;;;;;;;13.49;100.00;99176.84;4969306;28;20421;-59
2023/05/04 06:05:09;;;;;;;9.43;6.13;;;;;;;13.69;100.00;99177.63;4981119;28;20019;-60
2023/05/04 06:07:34;;;;;;;11.13;5.97;;;;;;;14.18;100.00;99178.03;4975079;28;20086;-60
2023/05/04 06:10:00;;;;;;;11.98;6.40;;;;;;;14.54;100.00;99172.00;4951756;28;20390;-59
2023/05/04 06:12:25;;;;;;;10.93;5.25;;;;;;;16.74;100.00;99169.50;4955647;28;20065;-59
2023/05/04 06:14:51;;;;;;;10.25;5.97;;;;;;;19.15;82.95;99161.66;4984897;28;20022;-60
2023/05/04 06:17:17;;;;;;;12.57;5.95;;;;;;;20.28;73.27;99166.78;4951344;28;20035;-60
2023/05/04 06:19:44;;;;;;;8.10;5.00;;;;;;;22.03;63.27;99156.84;4945918;28;20435;-60
2023/05/04 06:22:10;;;;;;;9.48;5.13;;;;;;;22.54;59.20;99162.50;4951650;28;20474;-60
2023/05/04 06:24:35;;;;;;;7.85;5.40;;;;;;;23.92;55.51;99163.53;4994445;28;20038;-60
2023/05/04 06:27:01;;;;;;;7.80;5.18;;;;;;;24.18;52.76;99161.47;4986343;28;20023;-60
2023/05/04 06:29:26;;;;;;;7.85;5.10;;;;;;;24.45;50.61;99161.09;4966247;28;20030;-60
2023/05/04 06:31:52;;;;;;;9.25;5.20;;;;;;;24.43;49.82;99161.34;4965167;28;20027;-60
2023/05/04 06:34:18;;;;;;;8.15;5.00;;;;;;;24.80;48.71;99161.94;4977200;28;20023;-60
2023/05/04 06:36:44;;;;;;;9.73;5.55;;;;;;;24.97;48.38;99162.38;4988685;28;20080;-60
2023/05/04 06:39:09;;;;;;;7.88;4.95;;;;;;;25.17;47.00;99158.63;4957274;28;20073;-60
2023/05/04 06:41:36;;;;;;;7.35;4.93;;;;;;;24.46;48.46;99171.03;4957344;28;20058;-60
2023/05/04 06:44:02;;;;;;;8.00;4.55;;;;;;;25.20;47.49;99159.97;4981482;28;20540;-60
2023/05/04 06:46:27;;;;;;;8.15;5.35;;;;;;;25.75;46.56;99157.75;4958670;28;20034;-60
2023/05/04 06:48:53;;;;;;;7.47;5.30;;;;;;;26.23;44.83;99153.03;4965565;28;20117;-59
2023/05/04 06:51:19;;;;;;;8.60;5.18;;;;;;;27.78;42.89;99149.38;4978709;28;20054;-56
2023/05/04 06:53:45;;;;;;;6.25;4.70;;;;;;;28.07;41.89;99151.88;4976931;28;20118;-56
2023/05/04 06:56:11;;;;;;;6.13;4.70;;;;;;;27.40;41.75;99157.06;4977168;28;20501;-56
2023/05/04 06:58:36;;;;;;;7.72;4.43;;;;;;;28.47;40.94;99146.56;4979920;28;20027;-56
2023/05/04 07:01:02;;;;;;;7.68;5.35;;;;;;;28.73;40.47;99146.78;4968869;28;20026;-60
2023/05/04 07:03:27;;;;;;;6.63;4.95;;;;;;;27.98;40.65;99145.38;4954160;28;20034;-60
2023/05/04 07:05:53;;;;;;;8.20;4.55;;;;;;;29.88;39.18;99153.56;4993192;28;20088;-64
2023/05/04 07:08:18;;;;;;;7.45;4.68;;;;;;;29.61;39.05;99153.78;4989580;28;20041;-59
2023/05/04 07:10:44;;;;;;;7.50;4.65;;;;;;;29.72;38.66;99152.38;4958926;28;20035;-59
2023/05/04 07:13:10;;;;;;;6.25;4.63;;;;;;;29.61;39.07;99148.19;4975226;28;20470;-57
2023/05/04 07:15:35;;;;;;;7.82;4.78;;;;;;;29.69;37.72;99147.44;4955435;28;20026;-58
2023/05/04 07:18:01;;;;;;;9.95;4.82;;;;;;;29.27;38.68;99149.66;4955607;28;20042;-58
2023/05/04 07:20:27;;;;;;;28.35;25.90;;;;;;;30.66;37.55;99144.53;4982865;28;20029;-58
2023/05/04 07:22:55;;;;;;;6.00;4.40;;;;;;;29.99;37.45;99145.72;4974012;28;20122;-58
2023/05/04 07:25:22;;;;;;;4.68;4.07;;;;;;;29.64;37.46;99142.81;4967743;28;20023;-58
2023/05/04 07:27:48;;;;;;;7.60;4.40;;;;;;;30.10;37.74;99140.66;4957419;28;20073;-58
2023/05/04 07:30:13;;;;;;;6.93;4.70;;;;;;;29.62;37.88;99135.88;4974021;28;20054;-58
2023/05/04 07:32:38;;;;;;;8.98;4.25;;;;;;;30.57;37.52;99136.16;4963301;28;20070;-59
2023/05/04 07:35:04;;;;;;;5.18;4.05;;;;;;;29.40;38.99;99142.34;4977116;28;20023;-58
2023/05/04 07:37:31;;;;;;;5.20;4.07;;;;;;;29.80;39.04;99134.84;4975955;28;20030;-58
2023/05/04 07:39:59;;;;;;;7.53;4.20;;;;;;;30.41;36.76;99131.38;4953204;28;20041;-58
2023/05/04 07:42:26;;;;;;;8.05;4.70;;;;;;;29.90;37.25;99133.72;4957747;28;20370;-58
2023/05/04 07:44:52;;;;;;;6.57;4.55;;;;;;;30.90;36.52;99124.50;4969453;28;20114;-59
2023/05/04 07:47:17;;;;;;;6.25;3.97;;;;;;;30.70;36.92;99134.34;4977175;28;20102;-58
2023/05/04 07:49:42;;;;;;;5.78;4.18;;;;;;;31.86;34.89;99132.63;4981555;28;20065;-59
2023/05/04 07:52:08;;;;;;;7.35;4.03;;;;;;;31.68;35.30;99129.09;4976411;28;20447;-59
2023/05/04 07:54:33;;;;;;;5.97;4.32;;;;;;;32.24;33.98;99121.38;4970122;28;20026;-58
2023/05/04 07:57:02;;;;;;;6.55;3.88;;;;;;;31.65;34.73;99126.97;4983569;28;20034;-58
2023/05/04 07:59:28;;;;;;;;;;;;;;;30.23;37.11;99131.34;4968908;28;20637;-59
2023/05/04 08:01:54;;;;;;;4.88;3.92;;;;;;;30.91;36.53;99128.94;4964184;28;19920;-59
2023/05/04 08:04:20;;;;;;;7.18;3.65;;;;;;;32.35;35.13;99124.59;4974337;28;20030;-59
2023/05/04 08:06:45;;;;;;;4.55;3.65;;;;;;;32.28;35.10;99129.94;4982176;28;20507;-62
2023/05/04 08:09:11;;;;;;;5.88;3.78;;;;;;;33.07;33.54;99133.78;4958707;28;20390;-63
2023/05/04 08:11:38;;;;;;;4.78;3.67;;;;;;;32.61;33.77;99130.03;4963234;28;20381;-63
2023/05/04 08:14:03;;;;;;;6.10;3.50;;;;;;;32.64;34.26;99123.75;4977489;28;20058;-63
2023/05/04 08:16:29;;;;;;;6.53;3.55;;;;;;;33.60;32.27;99122.81;4959843;28;20921;-63
2023/05/04 08:18:55;;;;;;;4.80;3.67;;;;;;;33.00;32.93;99118.66;4954944;28;20031;-63
2023/05/04 08:21:21;;;;;;;5.82;3.50;;;;;;;33.31;33.10;99110.56;4970104;28;20147;-63
2023/05/04 08:23:47;;;;;;;4.10;3.38;;;;;;;33.33;32.68;99116.66;4951554;28;20472;-63
2023/05/04 08:26:12;;;;;;;6.28;3.30;;;;;;;33.10;33.27;99104.22;4973333;28;20018;-63
2023/05/04 08:28:38;;;;;;;3.70;3.17;;;;;;;32.98;32.48;99107.75;4977985;28;20031;-62
2023/05/04 08:31:05;;;;;;;4.43;3.30;;;;;;;33.76;32.77;99106.09;4974280;28;20030;-63
2023/05/04 08:33:30;;;;;;;4.25;3.50;;;;;;;33.68;32.21;99099.44;4959265;28;20023;-63
2023/05/04 08:35:56;;;;;;;460.63;89.47;;;;;;;34.05;31.97;99096.59;4957746;28;20011;-63
2023/05/04 08:38:21;;;;;;;175.40;12.55;;;;;;;34.61;30.89;99095.94;4972058;28;20042;-63
2023/05/04 08:40:47;;;;;;;256.30;28.20;;;;;;;34.29;31.89;99098.56;4949977;28;20037;-63
2023/05/04 08:43:13;;;;;;;5.25;3.40;;;;;;;34.16;31.90;99109.00;4956954;28;20047;-63
2023/05/04 08:45:39;;;;;;;4.07;3.45;;;;;;;33.79;32.19;99106.19;4979044;28;20445;-63
2023/05/04 08:48:09;;;;;;;4.03;3.47;;;;;;;33.47;32.41;99107.09;4957592;28;20046;-62
2023/05/04 08:50:36;;;;;;;9.13;3.42;;;;;;;33.68;33.08;99095.81;4986216;28;20038;-63
2023/05/04 08:53:05;;;;;;;7.13;3.60;;;;;;;33.83;32.35;99098.72;4980991;28;20023;-63
2023/05/04 08:55:32;;;;;;;5.60;3.40;;;;;;;32.94;31.98;99090.81;4951366;28;20046;-60
2023/05/04 08:58:00;;;;;;;3.75;2.90;;;;;;;33.62;30.96;99083.19;4988504;28;20459;-61
2023/05/04 09:00:28;;;;;;;5.18;2.92;;;;;;;33.51;31.48;99082.78;4980327;28;20042;-60
2023/05/04 09:02:55;;;;;;;4.40;2.45;;;;;;;32.21;32.98;99084.84;4974427;28;20027;-60
2023/05/04 09:05:20;;;;;;;8.65;2.60;;;;;;;33.38;32.40;99073.56;4984818;28;20023;-60
2023/05/04 09:07:49;;;;;;;3.83;2.75;;;;;;;33.51;30.47;99060.34;4957443;28;20029;-59
2023/05/04 09:10:15;;;;;;;3.13;2.25;;;;;;;33.07;31.30;99065.69;4958822;28;20422;-59
2023/05/04 09:12:41;;;;;;;4.03;2.58;;;;;;;33.68;30.43;99074.16;4970729;28;20046;-60
2023/05/04 09:15:17;;;;;;;4.00;2.40;;;;;;;33.11;30.95;99069.41;4976973;28;20085;-60
2023/05/04 09:17:53;;;;;;;5.15;3.13;;;;;;;32.33;31.39;99064.50;4954584;28;20466;-59
2023/05/04 09:20:18;;;;;;;3.55;2.67;;;;;;;32.19;31.96;99060.00;4956113;28;20117;-59
2023/05/04 09:22:44;;;;;;;3.83;2.28;;;;;;;32.50;31.83;99058.78;4965420;28;20129;-60
2023/05/04 09:25:11;;;;;;;3.25;2.20;;;;;;;31.87;32.88;99058.72;4970358;28;20023;-60
2023/05/04 09:27:40;;;;;;;3.47;2.55;;;;;;;33.13;31.22;99062.28;4947700;28;20464;-60
2023/05/04 09:30:06;;;;;;;3.38;2.08;;;;;;;32.80;31.98;99055.84;4976600;28;20489;-60
2023/05/04 09:32:43;;;;;;;5.00;2.38;;;;;;;33.03;30.80;99059.13;4968357;28;20042;-60
2023/05/04 09:35:09;;;;;;;3.00;2.30;;;;;;;32.18;31.96;99051.94;4979530;28;20162;-60
2023/05/04 09:37:47;;;;;;;3.42;2.20;;;;;;;32.71;31.22;99051.16;4956172;28;20449;-60
2023/05/04 09:40:13;;;;;;;4.32;2.55;;;;;;;33.22;30.19;99048.16;4973886;28;20618;-60
2023/05/04 09:42:39;;;;;;;5.15;2.17;;;;;;;32.47;30.92;99042.66;4962827;28;20117;-60
2023/05/04 09:45:07;;;;;;;6.95;2.75;;;;;;;33.68;30.29;99054.53;4980374;28;20023;-60
2023/05/04 09:47:37;;;;;;;4.07;2.40;;;;;;;33.23;30.31;99046.19;4954040;28;20031;-60
2023/05/04 09:50:21;;;;;;;2.60;2.30;;;;;;;31.83;31.16;99040.94;4958387;28;20039;-60
2023/05/04 09:52:48;;;;;;;2.70;2.20;;;;;;;33.43;30.81;99038.81;4948594;28;21285;-60
2023/05/04 09:55:16;;;;;;;3.38;2.50;;;;;;;33.61;30.22;99037.44;4959252;28;20034;-60
2023/05/04 09:57:43;;;;;;;3.28;2.13;;;;;;;33.26;30.32;99031.47;4967035;28;20118;-60
2023/05/04 10:00:11;;;;;;;4.13;2.35;;;;;;;32.53;31.46;99028.09;4973758;28;20027;-60
2023/05/04 10:02:37;;;;;;;;;;;;;;;32.71;30.81;99027.94;4948273;28;20031;-60
2023/05/04 10:05:04;;;;;;;4.03;1.90;;;;;;;32.24;30.95;99016.97;4957349;28;19921;-60
2023/05/04 10:07:30;;;;;;;2.88;1.80;;;;;;;32.74;30.18;99024.44;4957788;28;20038;-60
2023/05/04 10:09:58;;;;;;;2.65;2.00;;;;;;;32.36;31.37;99014.25;4961196;28;20058;-60
2023/05/04 10:12:24;;;;;;;2.50;1.90;;;;;;;32.79;30.42;99018.63;4967060;28;20023;-60
2023/05/04 10:14:49;;;;;;;3.47;2.08;;;;;;;33.43;30.75;99010.78;4996241;28;20031;-60
2023/05/04 10:17:36;;;;;;;2.40;1.90;;;;;;;33.60;30.49;99004.97;4977090;28;20034;-60
2023/05/04 10:20:18;;;;;;;4.07;2.17;;;;;;;32.80;30.00;99011.03;4966199;28;20058;-60
2023/05/04 10:22:46;;;;;;;2.95;2.20;;;;;;;32.84;29.88;99017.59;4972973;28;20031;-61
2023/05/04 10:25:35;;;;;;;3.95;1.90;;;;;;;32.06;30.85;99007.91;4982076;28;20027;-59
2023/05/04 10:28:18;;;;;;;2.47;2.03;;;;;;;32.79;29.51;98998.19;4969673;28;20101;-60
2023/05/04 10:30:44;;;;;;;4.53;1.80;;;;;;;32.09;29.58;99002.47;4958089;28;20391;-60
2023/05/04 10:33:10;;;;;;;2.92;2.00;;;;;;;30.56;30.64;99005.25;4973889;28;20026;-59
2023/05/04 10:35:36;;;;;;;4.38;2.08;;;;;;;31.61;30.07;99003.72;4975864;28;20078;-60
2023/05/04 10:38:03;;;;;;;6.35;1.95;;;;;;;32.60;30.13;99001.53;4982111;28;20019;-60
2023/05/04 10:40:35;;;;;;;4.10;1.80;;;;;;;32.88;29.59;98991.31;4989648;28;20430;-60
2023/05/04 10:43:01;;;;;;;3.70;1.60;;;;;;;32.83;28.92;98987.91;4954249;28;20101;-60
2023/05/04 10:45:42;;;;;;;2.08;1.60;;;;;;;32.72;28.67;98988.38;4973686;28;20426;-60
2023/05/04 10:48:08;;;;;;;5.35;1.80;;;;;;;30.94;30.63;98988.59;4977086;28;20029;-60
2023/05/04 10:50:48;;;;;;;4.95;2.03;;;;;;;31.71;29.67;98982.13;4986903;28;20018;-60
2023/05/04 10:53:15;;;;;;;2.47;1.80;;;;;;;31.36;29.66;98973.91;4971279;28;20126;-60
2023/05/04 10:55:45;;;;;;;4.15;2.10;;;;;;;31.49;29.64;98960.88;4967005;28;20118;-59
2023/05/04 10:58:13;;;;;;;2.67;1.90;;;;;;;31.83;29.42;98973.78;4977368;28;20113;-60
2023/05/04 11:00:46;;;;;;;2.45;1.63;;;;;;;30.92;29.43;98964.94;4976911;28;20482;-60
2023/05/04 11:03:12;;;;;;;2.75;1.65;;;;;;;30.00;30.58;98957.66;4991377;28;20363;-59
2023/05/04 11:05:50;;;;;;;2.25;1.42;;;;;;;30.62;30.22;98950.84;4963909;28;20025;-59
2023/05/04 11:08:16;;;;;;;3.38;1.83;;;;;;;31.00;31.49;98955.69;4989097;28;20093;-59
2023/05/04 11:10:42;;;;;;;3.20;1.42;;;;;;;32.00;30.00;98950.50;4955817;28;20026;-60
2023/05/04 11:13:11;;;;;;;3.47;1.40;;;;;;;33.20;28.43;98946.75;4957783;28;20022;-60
2023/05/04 11:15:47;;;;;;;2.28;1.65;;;;;;;33.09;26.88;98952.03;4977850;28;20549;-60
2023/05/04 11:18:12;;;;;;;3.17;1.70;;;;;;;32.55;27.76;98945.72;4966825;28;20459;-60
2023/05/04 11:20:39;;;;;;;5.65;1.60;;;;;;;31.78;28.77;98938.47;4986802;28;20033;-60
2023/05/04 11:23:08;;;;;;;2.88;1.63;;;;;;;32.05;28.24;98955.88;4974603;28;20030;-60
2023/05/04 11:25:37;;;;;;;3.67;1.50;;;;;;;33.68;27.70;98944.28;4990728;28;20133;-60